• Join FlightAware (Why Join?)
  • Login
  • US Flag 
07:21PM EDT


 

Airport Tracker/Info


-or-


 

Live Flight TrackerFlight Track Log ✈ N830QS ✈ 21-Jun-2013 ✈ KIWA - KRAP

Flight Track Log - Related Links

Times and Time Zones

All times are in EDT time to prevent confusion due to time zone crossing. See the N830QS flight status page for this flight to view local times or setup timezone preferences in your user account.

Time Position Orientation Groundspeed Altitude Reporting Facility
EDT Latitude Longitude Course Direction KTS MPH feet Rate Location/Type
05:23PM 35.0833 -111.6500 64° Northeast 219 252 9,800  Level Phoenix TRACON
05:23PM 35.1167 -111.5667 64° Northeast 272 313 11,500 1,980 Climbing Phoenix TRACON
05:24PM 35.1333 -111.4500 80° East 359 413 13,400 1,860 Climbing Phoenix TRACON
05:26PM 35.1500 -111.3167 81° East 370 426 15,500 1,980 Climbing Phoenix TRACON
05:27PM 35.1667 -111.1833 81° East 376 433 17,700 2,340 Climbing Phoenix TRACON
05:28PM 35.2000 -111.0500 73° East 387 445 20,200 2,100 Climbing Phoenix TRACON
05:29PM 35.2167 -110.9167 81° East 394 453 22,000 1,680 Climbing Phoenix TRACON
05:30PM 35.2333 -110.7833 81° East 409 471 23,600 1,620 Climbing Phoenix TRACON
05:31PM 35.2500 -110.6333 82° East 428 493 25,300 1,800 Climbing Phoenix TRACON
05:32PM 35.2667 -110.4833 82° East 437 503 27,300 1,800 Climbing Phoenix TRACON
05:33PM 35.2833 -110.3333 82° East 440 506 28,900 1,380 Climbing Phoenix TRACON
05:34PM 35.3167 -110.1833 75° East 447 514 30,100 1,020 Climbing Phoenix TRACON
05:35PM 35.3333 -110.0167 83° East 463 533 31,000 420 Climbing Phoenix TRACON
05:36PM 35.3500 -109.8667 82° East 483 556 31,000 660 Level Phoenix TRACON
05:37PM 35.3667 -109.7000 83° East 502 578 32,300 1,860 Climbing Phoenix TRACON
05:38PM 35.4000 -109.5500 75° East 489 563 34,600 1,740 Climbing Phoenix TRACON
05:39PM 35.4167 -109.3833 83° East 456 525 36,000 960 Climbing Phoenix TRACON
05:40PM 35.4333 -109.2333 82° East 467 537 36,700 900 Climbing Phoenix TRACON
05:41PM 35.4500 -109.0667 83° East 476 548 37,900 1,140 Climbing Phoenix TRACON
05:42PM 35.4667 -108.9167 82° East 477 549 38,900 840 Climbing Phoenix TRACON
05:43PM 35.5000 -108.7667 75° East 477 549 39,600 660 Climbing Phoenix TRACON
05:45PM 35.7347 -108.6294 25° Northeast  Level Estimated
05:52PM 36.5619 -108.1383 25° Northeast  Level Estimated
05:53PM 36.6799 -108.0673 26° Northeast  Level Estimated
05:54PM 36.7978 -107.9960 26° Northeast  Level Estimated
05:55PM 36.9157 -107.9246 26° Northeast  Level Estimated
05:56PM 37.0336 -107.8529 26° Northeast  Level Estimated
05:57PM 37.1514 -107.7810 26° Northeast  Level Estimated
05:58PM 37.2692 -107.7089 26° Northeast  Level Estimated
05:59PM 37.3870 -107.6366 26° Northeast  Level Estimated
06:00PM 37.5047 -107.5640 26° Northeast  Level Estimated
06:01PM 37.6223 -107.4912 26° Northeast  Level Estimated
06:02PM 37.7399 -107.4182 26° Northeast  Level Estimated
06:03PM 37.8575 -107.3449 26° Northeast  Level Estimated
06:04PM 37.9750 -107.2714 26° Northeast  Level Estimated
06:05PM 38.0925 -107.1977 26° Northeast  Level Estimated
06:06PM 38.2099 -107.1237 26° Northeast  Level Estimated
06:07PM 38.3273 -107.0495 26° Northeast  Level Estimated
06:08PM 38.4446 -106.9751 26° Northeast  Level Estimated
06:09PM 38.5619 -106.9004 26° Northeast  Level Estimated
06:10PM 38.6791 -106.8254 27° Northeast  Level Estimated
06:11PM 38.7963 -106.7503 27° Northeast  Level Estimated
06:12PM 38.9134 -106.6748 27° Northeast  Level Estimated
06:13PM 39.0305 -106.5991 27° Northeast  Level Estimated
06:14PM 39.1476 -106.5232 27° Northeast  Level Estimated
06:15PM 39.2646 -106.4470 27° Northeast  Level Estimated
06:16PM 39.3815 -106.3706 27° Northeast  Level Estimated
06:17PM 39.4984 -106.2939 27° Northeast  Level Estimated
06:18PM 39.6152 -106.2169 27° Northeast  Level Estimated
06:19PM 39.7320 -106.1397 27° Northeast  Level Estimated
06:20PM 39.8488 -106.0623 27° Northeast  Level Estimated
06:21PM 39.9655 -105.9845 27° Northeast  Level Estimated
06:22PM 40.0821 -105.9065 27° Northeast  Level Estimated
06:23PM 40.1987 -105.8283 27° Northeast  Level Estimated
06:24PM 40.3152 -105.7497 27° Northeast  Level Estimated
06:25PM 40.4317 -105.6709 27° Northeast  Level Estimated
06:26PM 40.5481 -105.5918 27° Northeast  Level Estimated
06:27PM 40.6645 -105.5125 27° Northeast  Level Estimated
06:28PM 40.7808 -105.4328 27° Northeast  Level Estimated
06:29PM 40.8970 -105.3529 27° Northeast  Level Estimated
06:30PM 41.0132 -105.2727 28° Northeast  Level Estimated
06:31PM 41.1294 -105.1922 28° Northeast  Level Estimated
06:32PM 41.2455 -105.1115 28° Northeast  Level Estimated
06:33PM 41.3615 -105.0304 28° Northeast  Level Estimated
06:34PM 41.4775 -104.9491 28° Northeast  Level Estimated
06:35PM 41.5934 -104.8674 28° Northeast  Level Estimated
06:36PM 41.7093 -104.7855 28° Northeast  Level Estimated
06:37PM 41.8251 -104.7032 28° Northeast  Level Estimated
06:38PM 41.9408 -104.6207 28° Northeast  Level Estimated
06:39PM 42.0565 -104.5379 28° Northeast  Level Estimated
06:40PM 42.1722 -104.4548 28° Northeast  Level Estimated
06:41PM 42.2877 -104.3714 28° Northeast  Level Estimated
06:42PM 42.4032 -104.2876 28° Northeast  Level Estimated
06:43PM 42.5187 -104.2036 28° Northeast  Level Estimated
06:44PM 42.6341 -104.1192 28° Northeast  Level Estimated
06:45PM 42.7494 -104.0345 28° Northeast  Level Estimated
06:46PM 42.8646 -103.9495 28° Northeast  Level Estimated
06:47PM 42.9798 -103.8642 28° Northeast  Level Estimated
06:48PM 43.0950 -103.7786 28° Northeast  Level Estimated
06:49PM 43.2100 -103.6927 29° Northeast  Level Estimated
06:50PM 43.3250 -103.6064 29° Northeast  Level Estimated
06:51PM 43.4400 -103.5198 29° Northeast  Level Estimated
06:52PM 43.5549 -103.4329 29° Northeast  Level Estimated
06:53PM 43.6697 -103.3456 29° Northeast  Level Estimated
06:54PM 43.7844 -103.2580 29° Northeast  Level Estimated
06:55PM 43.8991 -103.1701 29° Northeast  Level Estimated
06:56PM 44.0137 -103.0818 29° Northeast  Level Estimated
06:57PM 44.0453 -103.0574 29° Northeast  Level Estimated
06:58PM 44.0453 -103.0574 347° North  Level Estimated
06:59PM 44.0453 -103.0574 347° North  Level Estimated
07:00PM 44.0453 -103.0574 347° North  Level Estimated
07:01PM 44.0453 -103.0574 347° North  Level Estimated
07:02PM 44.0453 -103.0574 347° North  Level Estimated
07:03PM 44.0453 -103.0574 347° North  Level Estimated
07:04PM 44.0453 -103.0574 347° North  Level Estimated
07:05PM 44.0453 -103.0574 347° North  Level Estimated
07:06PM 44.0453 -103.0574 347° North  Level Estimated
07:07PM 44.0453 -103.0574 347° North  Level Estimated
07:08PM 44.0453 -103.0574 347° North  Level Estimated
07:09PM 44.0453 -103.0574 347° North  Level Estimated
07:10PM 44.0453 -103.0574 347° North  Level Estimated
07:11PM 44.0453 -103.0574 347° North  Level Estimated
07:12PM 44.0453 -103.0574 347° North  Level Estimated
07:13PM 44.0453 -103.0574 347° North  Level Estimated
07:14PM 44.0453 -103.0574 347° North  Level Estimated
07:15PM 44.0453 -103.0574 347° North  Level Estimated
07:16PM 44.0453 -103.0574 347° North  Level Estimated
07:17PM 44.0453 -103.0574 347° North  Level Estimated
07:18PM 44.0453 -103.0574 347° North  Level Estimated
07:19PM 44.0453 -103.0574 347° North  Level Estimated
07:20PM 44.0453 -103.0574 347° North  Level Estimated
07:21PM 44.0453 -103.0574 347° North  Level Estimated
07:22PM 44.0453 -103.0574 347° North  Level Estimated
07:23PM 44.0453 -103.0574 347° North  Level Estimated
07:24PM 44.0453 -103.0574 347° North  Level Estimated
07:25PM 44.0453 -103.0574 347° North  Level Estimated
07:26PM 44.0453 -103.0574 347° North  Level Estimated